sensor_id;sensor_type;location;lat;lon;timestamp;temperature;humidity
12060;DHT22;6091;51.432;6.880;2023-08-31T00:01:39;24.60;46.10
12060;DHT22;6091;51.432;6.880;2023-08-31T00:04:06;24.60;46.20
12060;DHT22;6091;51.432;6.880;2023-08-31T00:06:42;24.70;46.30
12060;DHT22;6091;51.432;6.880;2023-08-31T00:09:11;24.60;46.20
12060;DHT22;6091;51.432;6.880;2023-08-31T00:11:38;24.70;46.30
12060;DHT22;6091;51.432;6.880;2023-08-31T00:14:06;24.70;46.20
12060;DHT22;6091;51.432;6.880;2023-08-31T00:16:33;24.70;46.00
12060;DHT22;6091;51.432;6.880;2023-08-31T00:19:00;24.70;46.00
12060;DHT22;6091;51.432;6.880;2023-08-31T00:21:27;24.60;46.00
12060;DHT22;6091;51.432;6.880;2023-08-31T00:23:54;24.60;46.10
12060;DHT22;6091;51.432;6.880;2023-08-31T00:26:21;24.60;46.00
12060;DHT22;6091;51.432;6.880;2023-08-31T00:28:48;24.60;45.90
12060;DHT22;6091;51.432;6.880;2023-08-31T00:31:15;24.60;45.90
12060;DHT22;6091;51.432;6.880;2023-08-31T00:33:43;24.60;45.90
12060;DHT22;6091;51.432;6.880;2023-08-31T00:36:10;24.70;45.90
12060;DHT22;6091;51.432;6.880;2023-08-31T00:38:39;24.60;45.90
12060;DHT22;6091;51.432;6.880;2023-08-31T00:41:06;24.60;45.90
12060;DHT22;6091;51.432;6.880;2023-08-31T00:43:34;24.60;46.00
12060;DHT22;6091;51.432;6.880;2023-08-31T00:46:01;24.60;46.00
12060;DHT22;6091;51.432;6.880;2023-08-31T00:48:28;24.60;46.00
12060;DHT22;6091;51.432;6.880;2023-08-31T00:50:55;24.60;46.00
12060;DHT22;6091;51.432;6.880;2023-08-31T00:53:22;24.60;46.00
12060;DHT22;6091;51.432;6.880;2023-08-31T00:55:50;24.60;46.00
12060;DHT22;6091;51.432;6.880;2023-08-31T00:58:17;24.60;46.00
12060;DHT22;6091;51.432;6.880;2023-08-31T01:09:53;24.60;45.80
12060;DHT22;6091;51.432;6.880;2023-08-31T01:12:32;24.50;45.80
12060;DHT22;6091;51.432;6.880;2023-08-31T01:15:26;24.50;45.70
12060;DHT22;6091;51.432;6.880;2023-08-31T01:17:59;24.50;45.70
12060;DHT22;6091;51.432;6.880;2023-08-31T01:20:35;24.50;45.90
12060;DHT22;6091;51.432;6.880;2023-08-31T01:23:12;24.50;45.70
12060;DHT22;6091;51.432;6.880;2023-08-31T01:25:43;24.50;45.90
12060;DHT22;6091;51.432;6.880;2023-08-31T01:28:11;24.50;45.90
12060;DHT22;6091;51.432;6.880;2023-08-31T01:30:38;24.50;45.90
12060;DHT22;6091;51.432;6.880;2023-08-31T01:33:05;24.50;45.90
12060;DHT22;6091;51.432;6.880;2023-08-31T01:35:42;24.50;45.90
12060;DHT22;6091;51.432;6.880;2023-08-31T01:38:14;24.50;45.80
12060;DHT22;6091;51.432;6.880;2023-08-31T01:41:05;24.50;45.80
12060;DHT22;6091;51.432;6.880;2023-08-31T01:43:35;24.50;45.80
12060;DHT22;6091;51.432;6.880;2023-08-31T01:46:04;24.50;45.80
12060;DHT22;6091;51.432;6.880;2023-08-31T01:48:31;24.50;45.80
12060;DHT22;6091;51.432;6.880;2023-08-31T01:51:06;24.60;45.90
12060;DHT22;6091;51.432;6.880;2023-08-31T01:53:36;24.50;45.90
12060;DHT22;6091;51.432;6.880;2023-08-31T01:56:04;24.50;45.70
12060;DHT22;6091;51.432;6.880;2023-08-31T01:58:31;24.60;45.70
12060;DHT22;6091;51.432;6.880;2023-08-31T02:00:59;24.50;45.60
12060;DHT22;6091;51.432;6.880;2023-08-31T02:03:26;24.50;45.70
12060;DHT22;6091;51.432;6.880;2023-08-31T02:05:54;24.50;45.80
12060;DHT22;6091;51.432;6.880;2023-08-31T02:08:21;24.60;45.70
12060;DHT22;6091;51.432;6.880;2023-08-31T02:10:50;24.60;45.80
12060;DHT22;6091;51.432;6.880;2023-08-31T02:13:17;24.50;45.70
12060;DHT22;6091;51.432;6.880;2023-08-31T02:15:44;24.50;45.70
12060;DHT22;6091;51.432;6.880;2023-08-31T02:18:11;24.50;45.70
12060;DHT22;6091;51.432;6.880;2023-08-31T02:20:38;24.50;45.70
12060;DHT22;6091;51.432;6.880;2023-08-31T02:23:05;24.80;45.90
12060;DHT22;6091;51.432;6.880;2023-08-31T02:25:33;24.50;45.70
12060;DHT22;6091;51.432;6.880;2023-08-31T02:28:00;24.50;45.60
12060;DHT22;6091;51.432;6.880;2023-08-31T02:30:27;24.50;45.50
12060;DHT22;6091;51.432;6.880;2023-08-31T02:32:54;24.50;45.50
12060;DHT22;6091;51.432;6.880;2023-08-31T02:35:21;24.50;45.50
12060;DHT22;6091;51.432;6.880;2023-08-31T02:37:49;24.50;45.50
12060;DHT22;6091;51.432;6.880;2023-08-31T02:40:16;24.40;45.50
12060;DHT22;6091;51.432;6.880;2023-08-31T02:42:43;24.50;45.60
12060;DHT22;6091;51.432;6.880;2023-08-31T02:45:10;24.50;45.60
12060;DHT22;6091;51.432;6.880;2023-08-31T02:47:37;24.40;45.40
12060;DHT22;6091;51.432;6.880;2023-08-31T02:50:07;24.40;45.50
12060;DHT22;6091;51.432;6.880;2023-08-31T02:52:35;24.40;45.40
12060;DHT22;6091;51.432;6.880;2023-08-31T02:55:02;24.40;45.40
12060;DHT22;6091;51.432;6.880;2023-08-31T02:57:29;24.40;45.40
12060;DHT22;6091;51.432;6.880;2023-08-31T02:59:57;24.40;45.60
12060;DHT22;6091;51.432;6.880;2023-08-31T03:02:25;24.40;45.60
12060;DHT22;6091;51.432;6.880;2023-08-31T03:05:08;24.40;45.40
12060;DHT22;6091;51.432;6.880;2023-08-31T03:07:36;24.40;45.40
12060;DHT22;6091;51.432;6.880;2023-08-31T03:10:04;24.30;45.20
12060;DHT22;6091;51.432;6.880;2023-08-31T03:12:31;24.40;45.50
12060;DHT22;6091;51.432;6.880;2023-08-31T03:14:58;24.30;45.40
12060;DHT22;6091;51.432;6.880;2023-08-31T03:17:25;24.30;45.40
12060;DHT22;6091;51.432;6.880;2023-08-31T03:19:52;24.30;45.50
12060;DHT22;6091;51.432;6.880;2023-08-31T03:22:19;24.30;45.40
12060;DHT22;6091;51.432;6.880;2023-08-31T03:24:46;24.30;45.50
12060;DHT22;6091;51.432;6.880;2023-08-31T03:27:13;24.30;45.30
12060;DHT22;6091;51.432;6.880;2023-08-31T03:29:42;24.30;45.50
12060;DHT22;6091;51.432;6.880;2023-08-31T03:32:09;24.30;45.40
12060;DHT22;6091;51.432;6.880;2023-08-31T03:34:38;24.20;45.20
12060;DHT22;6091;51.432;6.880;2023-08-31T03:37:06;24.30;45.30
12060;DHT22;6091;51.432;6.880;2023-08-31T03:39:41;24.30;45.30
12060;DHT22;6091;51.432;6.880;2023-08-31T03:42:13;24.20;45.20
12060;DHT22;6091;51.432;6.880;2023-08-31T03:44:40;24.20;45.30
12060;DHT22;6091;51.432;6.880;2023-08-31T03:47:07;24.20;45.40
12060;DHT22;6091;51.432;6.880;2023-08-31T03:49:34;24.20;45.50
12060;DHT22;6091;51.432;6.880;2023-08-31T03:52:19;24.20;45.50
12060;DHT22;6091;51.432;6.880;2023-08-31T03:54:56;24.20;45.40
12060;DHT22;6091;51.432;6.880;2023-08-31T03:57:23;24.20;45.30
12060;DHT22;6091;51.432;6.880;2023-08-31T03:59:54;24.20;45.50
12060;DHT22;6091;51.432;6.880;2023-08-31T04:02:42;24.20;45.50
12060;DHT22;6091;51.432;6.880;2023-08-31T04:05:11;24.20;45.50
12060;DHT22;6091;51.432;6.880;2023-08-31T04:07:40;24.20;45.40
12060;DHT22;6091;51.432;6.880;2023-08-31T04:10:08;24.20;45.40
12060;DHT22;6091;51.432;6.880;2023-08-31T04:12:35;24.20;45.50
12060;DHT22;6091;51.432;6.880;2023-08-31T04:15:02;24.20;45.50
12060;DHT22;6091;51.432;6.880;2023-08-31T04:17:31;24.20;45.50
12060;DHT22;6091;51.432;6.880;2023-08-31T04:19:59;24.20;45.40
12060;DHT22;6091;51.432;6.880;2023-08-31T04:22:26;24.30;45.40
12060;DHT22;6091;51.432;6.880;2023-08-31T04:24:53;24.30;45.40
12060;DHT22;6091;51.432;6.880;2023-08-31T04:27:21;24.20;45.40
12060;DHT22;6091;51.432;6.880;2023-08-31T04:29:48;24.20;45.40
12060;DHT22;6091;51.432;6.880;2023-08-31T04:32:15;24.20;45.40
12060;DHT22;6091;51.432;6.880;2023-08-31T04:34:42;24.30;45.40
12060;DHT22;6091;51.432;6.880;2023-08-31T04:37:09;24.30;45.20
12060;DHT22;6091;51.432;6.880;2023-08-31T04:39:36;24.30;45.30
12060;DHT22;6091;51.432;6.880;2023-08-31T04:42:04;24.30;45.30
12060;DHT22;6091;51.432;6.880;2023-08-31T04:44:31;24.20;45.30
12060;DHT22;6091;51.432;6.880;2023-08-31T04:47:10;24.30;45.40
12060;DHT22;6091;51.432;6.880;2023-08-31T04:49:39;24.10;45.00
12060;DHT22;6091;51.432;6.880;2023-08-31T04:52:06;24.20;45.10
12060;DHT22;6091;51.432;6.880;2023-08-31T04:54:33;24.20;45.20
12060;DHT22;6091;51.432;6.880;2023-08-31T04:57:00;24.20;45.20
12060;DHT22;6091;51.432;6.880;2023-08-31T04:59:27;24.20;45.30
12060;DHT22;6091;51.432;6.880;2023-08-31T05:01:55;24.20;45.10
12060;DHT22;6091;51.432;6.880;2023-08-31T05:04:22;24.20;45.10
12060;DHT22;6091;51.432;6.880;2023-08-31T05:06:50;24.20;45.30
12060;DHT22;6091;51.432;6.880;2023-08-31T05:09:17;24.20;45.20
12060;DHT22;6091;51.432;6.880;2023-08-31T05:11:47;23.90;45.10
12060;DHT22;6091;51.432;6.880;2023-08-31T05:14:14;24.20;45.20
12060;DHT22;6091;51.432;6.880;2023-08-31T05:16:41;24.20;45.30
12060;DHT22;6091;51.432;6.880;2023-08-31T05:19:08;24.20;45.30
12060;DHT22;6091;51.432;6.880;2023-08-31T05:21:35;24.20;45.20
12060;DHT22;6091;51.432;6.880;2023-08-31T05:24:05;24.20;45.20
12060;DHT22;6091;51.432;6.880;2023-08-31T05:26:32;24.20;45.20
12060;DHT22;6091;51.432;6.880;2023-08-31T05:28:59;24.20;45.20
12060;DHT22;6091;51.432;6.880;2023-08-31T05:31:27;24.20;45.20
12060;DHT22;6091;51.432;6.880;2023-08-31T05:33:54;24.20;45.30
12060;DHT22;6091;51.432;6.880;2023-08-31T05:36:21;24.20;45.40
12060;DHT22;6091;51.432;6.880;2023-08-31T05:38:48;24.20;45.50
12060;DHT22;6091;51.432;6.880;2023-08-31T05:41:15;24.20;45.10
12060;DHT22;6091;51.432;6.880;2023-08-31T05:43:43;24.20;45.30
12060;DHT22;6091;51.432;6.880;2023-08-31T05:46:10;24.20;45.50
12060;DHT22;6091;51.432;6.880;2023-08-31T05:48:38;24.30;45.70
12060;DHT22;6091;51.432;6.880;2023-08-31T05:51:05;24.30;45.60
12060;DHT22;6091;51.432;6.880;2023-08-31T05:53:32;24.40;45.80
12060;DHT22;6091;51.432;6.880;2023-08-31T05:56:01;24.40;45.60
12060;DHT22;6091;51.432;6.880;2023-08-31T05:58:33;24.50;45.60
12060;DHT22;6091;51.432;6.880;2023-08-31T06:01:03;24.50;45.50
12060;DHT22;6091;51.432;6.880;2023-08-31T06:03:31;24.60;45.40
12060;DHT22;6091;51.432;6.880;2023-08-31T06:05:59;24.70;45.50
12060;DHT22;6091;51.432;6.880;2023-08-31T06:08:26;24.80;45.40
12060;DHT22;6091;51.432;6.880;2023-08-31T06:10:55;24.80;45.70
12060;DHT22;6091;51.432;6.880;2023-08-31T06:13:22;24.90;45.30
12060;DHT22;6091;51.432;6.880;2023-08-31T06:15:49;24.90;45.20
12060;DHT22;6091;51.432;6.880;2023-08-31T06:18:16;24.90;45.00
12060;DHT22;6091;51.432;6.880;2023-08-31T06:20:44;24.90;44.80
12060;DHT22;6091;51.432;6.880;2023-08-31T06:23:11;25.00;45.00
12060;DHT22;6091;51.432;6.880;2023-08-31T06:25:39;25.00;44.70
12060;DHT22;6091;51.432;6.880;2023-08-31T06:28:06;25.00;44.80
12060;DHT22;6091;51.432;6.880;2023-08-31T06:30:35;25.00;45.00
12060;DHT22;6091;51.432;6.880;2023-08-31T06:33:03;25.00;44.90
12060;DHT22;6091;51.432;6.880;2023-08-31T06:35:30;25.00;44.70
12060;DHT22;6091;51.432;6.880;2023-08-31T06:38:00;25.00;44.70
12060;DHT22;6091;51.432;6.880;2023-08-31T06:40:27;25.00;44.60
12060;DHT22;6091;51.432;6.880;2023-08-31T06:42:54;25.10;44.60
12060;DHT22;6091;51.432;6.880;2023-08-31T06:45:21;25.00;45.20
12060;DHT22;6091;51.432;6.880;2023-08-31T06:47:48;25.00;44.70
12060;DHT22;6091;51.432;6.880;2023-08-31T06:50:16;25.00;44.80
12060;DHT22;6091;51.432;6.880;2023-08-31T06:52:43;25.10;44.70
12060;DHT22;6091;51.432;6.880;2023-08-31T06:55:13;25.00;44.80
12060;DHT22;6091;51.432;6.880;2023-08-31T06:57:40;25.00;44.70
12060;DHT22;6091;51.432;6.880;2023-08-31T07:00:09;25.00;44.80
12060;DHT22;6091;51.432;6.880;2023-08-31T07:02:41;25.00;45.00
12060;DHT22;6091;51.432;6.880;2023-08-31T07:05:10;25.10;45.30
12060;DHT22;6091;51.432;6.880;2023-08-31T07:07:38;25.10;45.60
12060;DHT22;6091;51.432;6.880;2023-08-31T07:10:05;25.10;45.60
12060;DHT22;6091;51.432;6.880;2023-08-31T07:12:33;25.20;45.70
12060;DHT22;6091;51.432;6.880;2023-08-31T07:15:01;25.30;45.80
12060;DHT22;6091;51.432;6.880;2023-08-31T07:17:28;25.30;45.80
12060;DHT22;6091;51.432;6.880;2023-08-31T07:19:55;25.40;46.00
12060;DHT22;6091;51.432;6.880;2023-08-31T07:22:22;25.50;45.70
12060;DHT22;6091;51.432;6.880;2023-08-31T07:24:50;25.60;45.80
12060;DHT22;6091;51.432;6.880;2023-08-31T07:27:18;25.60;45.80
12060;DHT22;6091;51.432;6.880;2023-08-31T07:29:45;25.70;45.80
12060;DHT22;6091;51.432;6.880;2023-08-31T07:32:12;25.80;45.80
12060;DHT22;6091;51.432;6.880;2023-08-31T07:34:40;25.80;45.70
12060;DHT22;6091;51.432;6.880;2023-08-31T07:37:07;25.90;45.70
12060;DHT22;6091;51.432;6.880;2023-08-31T07:39:34;26.00;45.80
12060;DHT22;6091;51.432;6.880;2023-08-31T07:42:01;26.00;45.70
12060;DHT22;6091;51.432;6.880;2023-08-31T07:44:29;26.00;45.60
12060;DHT22;6091;51.432;6.880;2023-08-31T07:46:56;26.10;45.50
12060;DHT22;6091;51.432;6.880;2023-08-31T07:49:24;26.10;45.40
12060;DHT22;6091;51.432;6.880;2023-08-31T07:51:51;26.20;45.40
12060;DHT22;6091;51.432;6.880;2023-08-31T07:54:22;26.20;45.30
12060;DHT22;6091;51.432;6.880;2023-08-31T07:56:52;26.20;45.20
12060;DHT22;6091;51.432;6.880;2023-08-31T07:59:19;26.20;45.20
12060;DHT22;6091;51.432;6.880;2023-08-31T08:01:48;26.30;45.20
12060;DHT22;6091;51.432;6.880;2023-08-31T08:04:15;26.30;45.20
12060;DHT22;6091;51.432;6.880;2023-08-31T08:06:45;26.30;45.70
12060;DHT22;6091;51.432;6.880;2023-08-31T08:09:13;26.40;45.10
12060;DHT22;6091;51.432;6.880;2023-08-31T08:11:40;26.30;45.00
12060;DHT22;6091;51.432;6.880;2023-08-31T08:14:08;26.40;45.00
12060;DHT22;6091;51.432;6.880;2023-08-31T08:16:36;26.40;45.00
12060;DHT22;6091;51.432;6.880;2023-08-31T08:19:05;26.50;45.00
12060;DHT22;6091;51.432;6.880;2023-08-31T08:21:33;26.50;44.90
12060;DHT22;6091;51.432;6.880;2023-08-31T08:24:01;26.50;44.80
12060;DHT22;6091;51.432;6.880;2023-08-31T08:26:28;26.50;44.90
12060;DHT22;6091;51.432;6.880;2023-08-31T08:28:55;26.50;44.80
12060;DHT22;6091;51.432;6.880;2023-08-31T08:31:23;26.50;44.70
12060;DHT22;6091;51.432;6.880;2023-08-31T08:33:51;26.50;44.60
12060;DHT22;6091;51.432;6.880;2023-08-31T08:36:18;26.60;44.60
12060;DHT22;6091;51.432;6.880;2023-08-31T08:38:45;26.60;44.60
12060;DHT22;6091;51.432;6.880;2023-08-31T08:41:14;26.60;44.60
12060;DHT22;6091;51.432;6.880;2023-08-31T08:43:47;26.60;44.50
12060;DHT22;6091;51.432;6.880;2023-08-31T08:46:15;26.60;44.40
12060;DHT22;6091;51.432;6.880;2023-08-31T08:48:42;26.60;44.40
12060;DHT22;6091;51.432;6.880;2023-08-31T08:51:13;26.60;44.40
12060;DHT22;6091;51.432;6.880;2023-08-31T08:53:43;26.60;44.30
12060;DHT22;6091;51.432;6.880;2023-08-31T08:56:10;26.60;44.20
12060;DHT22;6091;51.432;6.880;2023-08-31T08:58:38;26.60;44.30
12060;DHT22;6091;51.432;6.880;2023-08-31T09:01:07;26.60;44.20
12060;DHT22;6091;51.432;6.880;2023-08-31T09:03:35;26.60;44.20
12060;DHT22;6091;51.432;6.880;2023-08-31T09:06:03;26.60;44.20
12060;DHT22;6091;51.432;6.880;2023-08-31T09:08:34;26.60;44.20
12060;DHT22;6091;51.432;6.880;2023-08-31T09:11:05;26.60;44.10
12060;DHT22;6091;51.432;6.880;2023-08-31T09:13:32;26.60;44.10
12060;DHT22;6091;51.432;6.880;2023-08-31T09:16:00;26.60;44.70
12060;DHT22;6091;51.432;6.880;2023-08-31T09:18:31;26.60;44.10
12060;DHT22;6091;51.432;6.880;2023-08-31T09:21:00;26.60;43.90
12060;DHT22;6091;51.432;6.880;2023-08-31T09:23:27;26.60;44.00
12060;DHT22;6091;51.432;6.880;2023-08-31T09:25:55;26.70;44.00
12060;DHT22;6091;51.432;6.880;2023-08-31T09:28:27;26.70;44.00
12060;DHT22;6091;51.432;6.880;2023-08-31T09:31:07;26.70;44.00
12060;DHT22;6091;51.432;6.880;2023-08-31T09:33:36;26.70;43.80
12060;DHT22;6091;51.432;6.880;2023-08-31T09:36:06;26.70;43.90
12060;DHT22;6091;51.432;6.880;2023-08-31T09:38:45;26.70;43.90
12060;DHT22;6091;51.432;6.880;2023-08-31T09:41:13;26.80;43.80
12060;DHT22;6091;51.432;6.880;2023-08-31T09:43:42;26.70;43.80
12060;DHT22;6091;51.432;6.880;2023-08-31T09:46:10;26.80;43.90
12060;DHT22;6091;51.432;6.880;2023-08-31T09:48:39;26.80;43.90
12060;DHT22;6091;51.432;6.880;2023-08-31T09:51:10;26.80;43.80
12060;DHT22;6091;51.432;6.880;2023-08-31T09:53:38;26.80;43.70
12060;DHT22;6091;51.432;6.880;2023-08-31T09:56:13;26.80;43.70
12060;DHT22;6091;51.432;6.880;2023-08-31T09:58:44;26.80;43.50
12060;DHT22;6091;51.432;6.880;2023-08-31T10:01:11;26.80;43.60
12060;DHT22;6091;51.432;6.880;2023-08-31T10:03:56;26.80;43.60
12060;DHT22;6091;51.432;6.880;2023-08-31T10:06:24;26.80;43.60
12060;DHT22;6091;51.432;6.880;2023-08-31T10:08:51;26.80;43.60
12060;DHT22;6091;51.432;6.880;2023-08-31T10:11:19;26.80;43.50
12060;DHT22;6091;51.432;6.880;2023-08-31T10:13:49;26.80;43.50
12060;DHT22;6091;51.432;6.880;2023-08-31T10:16:16;26.90;43.50
12060;DHT22;6091;51.432;6.880;2023-08-31T10:18:46;26.80;43.40
12060;DHT22;6091;51.432;6.880;2023-08-31T10:21:18;26.80;43.40
12060;DHT22;6091;51.432;6.880;2023-08-31T10:23:47;26.90;43.40
12060;DHT22;6091;51.432;6.880;2023-08-31T10:26:27;26.80;43.40
12060;DHT22;6091;51.432;6.880;2023-08-31T10:28:57;26.90;43.30
12060;DHT22;6091;51.432;6.880;2023-08-31T10:31:31;26.90;43.50
12060;DHT22;6091;51.432;6.880;2023-08-31T10:34:03;26.90;43.30
12060;DHT22;6091;51.432;6.880;2023-08-31T10:39:11;26.90;43.20
12060;DHT22;6091;51.432;6.880;2023-08-31T10:41:55;26.90;43.20
12060;DHT22;6091;51.432;6.880;2023-08-31T10:44:24;27.00;43.20
12060;DHT22;6091;51.432;6.880;2023-08-31T10:46:53;27.00;43.60
12060;DHT22;6091;51.432;6.880;2023-08-31T10:49:22;27.00;43.60
12060;DHT22;6091;51.432;6.880;2023-08-31T10:51:54;27.10;43.70
12060;DHT22;6091;51.432;6.880;2023-08-31T10:57:05;27.20;43.70
12060;DHT22;6091;51.432;6.880;2023-08-31T11:05:11;27.50;43.10
12060;DHT22;6091;51.432;6.880;2023-08-31T11:07:41;27.60;43.40
12060;DHT22;6091;51.432;6.880;2023-08-31T11:10:19;27.60;43.20
12060;DHT22;6091;51.432;6.880;2023-08-31T11:12:52;27.70;43.00
12060;DHT22;6091;51.432;6.880;2023-08-31T11:15:23;27.70;43.00
12060;DHT22;6091;51.432;6.880;2023-08-31T11:17:54;27.70;42.90
12060;DHT22;6091;51.432;6.880;2023-08-31T11:20:23;27.80;42.80
12060;DHT22;6091;51.432;6.880;2023-08-31T11:22:55;27.90;42.80
12060;DHT22;6091;51.432;6.880;2023-08-31T11:25:23;27.90;42.60
12060;DHT22;6091;51.432;6.880;2023-08-31T11:27:55;27.50;42.20
12060;DHT22;6091;51.432;6.880;2023-08-31T11:30:29;27.90;42.20
12060;DHT22;6091;51.432;6.880;2023-08-31T11:33:05;27.80;42.20
12060;DHT22;6091;51.432;6.880;2023-08-31T11:35:35;27.80;42.10
12060;DHT22;6091;51.432;6.880;2023-08-31T11:38:13;27.80;42.20
12060;DHT22;6091;51.432;6.880;2023-08-31T11:40:41;27.80;42.40
12060;DHT22;6091;51.432;6.880;2023-08-31T11:43:08;27.90;42.50
12060;DHT22;6091;51.432;6.880;2023-08-31T11:45:36;27.90;42.60
12060;DHT22;6091;51.432;6.880;2023-08-31T11:48:06;28.00;42.50
12060;DHT22;6091;51.432;6.880;2023-08-31T11:50:34;28.00;42.30
12060;DHT22;6091;51.432;6.880;2023-08-31T11:53:02;28.10;42.20
12060;DHT22;6091;51.432;6.880;2023-08-31T11:55:33;28.10;42.10
12060;DHT22;6091;51.432;6.880;2023-08-31T11:58:01;28.10;42.00
12060;DHT22;6091;51.432;6.880;2023-08-31T12:00:28;28.20;42.20
12060;DHT22;6091;51.432;6.880;2023-08-31T12:03:02;28.20;42.10
12060;DHT22;6091;51.432;6.880;2023-08-31T12:05:45;28.30;41.90
12060;DHT22;6091;51.432;6.880;2023-08-31T12:08:14;28.30;41.90
12060;DHT22;6091;51.432;6.880;2023-08-31T12:10:46;28.40;42.40
12060;DHT22;6091;51.432;6.880;2023-08-31T12:13:13;28.50;42.30
12060;DHT22;6091;51.432;6.880;2023-08-31T12:15:40;28.70;42.60
12060;DHT22;6091;51.432;6.880;2023-08-31T12:18:09;28.80;42.50
12060;DHT22;6091;51.432;6.880;2023-08-31T12:20:48;29.00;42.50
12060;DHT22;6091;51.432;6.880;2023-08-31T12:23:18;29.20;41.90
12060;DHT22;6091;51.432;6.880;2023-08-31T12:25:49;29.40;42.30
12060;DHT22;6091;51.432;6.880;2023-08-31T12:28:21;29.60;42.10
12060;DHT22;6091;51.432;6.880;2023-08-31T12:30:53;29.80;42.00
12060;DHT22;6091;51.432;6.880;2023-08-31T12:33:23;29.90;42.30
12060;DHT22;6091;51.432;6.880;2023-08-31T12:35:51;30.10;41.50
12060;DHT22;6091;51.432;6.880;2023-08-31T12:38:18;30.10;41.20
12060;DHT22;6091;51.432;6.880;2023-08-31T12:40:47;30.40;41.10
12060;DHT22;6091;51.432;6.880;2023-08-31T12:43:14;30.30;40.90
12060;DHT22;6091;51.432;6.880;2023-08-31T12:45:43;30.30;40.60
12060;DHT22;6091;51.432;6.880;2023-08-31T12:48:10;30.40;40.60
12060;DHT22;6091;51.432;6.880;2023-08-31T12:50:37;30.40;40.60
12060;DHT22;6091;51.432;6.880;2023-08-31T12:53:05;30.50;40.60
12060;DHT22;6091;51.432;6.880;2023-08-31T12:55:32;30.60;40.60
12060;DHT22;6091;51.432;6.880;2023-08-31T12:57:59;30.60;40.50
12060;DHT22;6091;51.432;6.880;2023-08-31T13:00:26;30.70;40.30
12060;DHT22;6091;51.432;6.880;2023-08-31T13:02:54;30.80;40.30
12060;DHT22;6091;51.432;6.880;2023-08-31T13:05:22;30.90;40.00
12060;DHT22;6091;51.432;6.880;2023-08-31T13:07:49;31.00;39.80
12060;DHT22;6091;51.432;6.880;2023-08-31T13:10:16;31.00;39.60
12060;DHT22;6091;51.432;6.880;2023-08-31T13:12:43;31.00;39.50
12060;DHT22;6091;51.432;6.880;2023-08-31T13:15:11;30.90;39.20
12060;DHT22;6091;51.432;6.880;2023-08-31T13:17:40;30.90;39.00
12060;DHT22;6091;51.432;6.880;2023-08-31T13:20:08;30.80;38.90
12060;DHT22;6091;51.432;6.880;2023-08-31T13:22:35;30.70;38.80
12060;DHT22;6091;51.432;6.880;2023-08-31T13:25:03;30.60;38.80
12060;DHT22;6091;51.432;6.880;2023-08-31T13:27:31;30.60;38.70
12060;DHT22;6091;51.432;6.880;2023-08-31T13:30:02;30.50;39.20
12060;DHT22;6091;51.432;6.880;2023-08-31T13:32:33;30.40;38.60
12060;DHT22;6091;51.432;6.880;2023-08-31T13:35:01;30.30;38.60
12060;DHT22;6091;51.432;6.880;2023-08-31T13:37:28;30.10;38.50
12060;DHT22;6091;51.432;6.880;2023-08-31T13:39:55;30.00;38.50
12060;DHT22;6091;51.432;6.880;2023-08-31T13:42:23;30.00;38.50
12060;DHT22;6091;51.432;6.880;2023-08-31T13:44:50;29.80;38.40
12060;DHT22;6091;51.432;6.880;2023-08-31T13:47:17;29.80;38.60
12060;DHT22;6091;51.432;6.880;2023-08-31T13:49:44;29.60;38.50
12060;DHT22;6091;51.432;6.880;2023-08-31T13:52:12;29.60;38.60
12060;DHT22;6091;51.432;6.880;2023-08-31T13:54:39;29.50;38.60
12060;DHT22;6091;51.432;6.880;2023-08-31T13:57:06;29.40;38.60
12060;DHT22;6091;51.432;6.880;2023-08-31T13:59:33;29.30;38.60
12060;DHT22;6091;51.432;6.880;2023-08-31T14:02:00;29.20;38.60
12060;DHT22;6091;51.432;6.880;2023-08-31T14:04:27;29.10;38.60
12060;DHT22;6091;51.432;6.880;2023-08-31T14:06:54;29.10;38.70
12060;DHT22;6091;51.432;6.880;2023-08-31T14:09:21;29.00;38.70
12060;DHT22;6091;51.432;6.880;2023-08-31T14:11:48;28.90;38.70
12060;DHT22;6091;51.432;6.880;2023-08-31T14:14:15;28.80;38.80
12060;DHT22;6091;51.432;6.880;2023-08-31T14:16:43;28.80;38.90
12060;DHT22;6091;51.432;6.880;2023-08-31T14:19:10;28.70;38.80
12060;DHT22;6091;51.432;6.880;2023-08-31T14:21:38;28.60;38.90
12060;DHT22;6091;51.432;6.880;2023-08-31T14:24:06;28.50;38.90
12060;DHT22;6091;51.432;6.880;2023-08-31T14:26:33;28.50;38.90
12060;DHT22;6091;51.432;6.880;2023-08-31T14:29:00;28.40;38.80
12060;DHT22;6091;51.432;6.880;2023-08-31T14:31:28;28.40;38.90
12060;DHT22;6091;51.432;6.880;2023-08-31T14:33:55;28.30;38.90
12060;DHT22;6091;51.432;6.880;2023-08-31T14:36:22;28.30;39.00
12060;DHT22;6091;51.432;6.880;2023-08-31T14:38:52;28.30;39.10
12060;DHT22;6091;51.432;6.880;2023-08-31T14:41:19;28.20;39.10
12060;DHT22;6091;51.432;6.880;2023-08-31T14:43:46;28.10;39.10
12060;DHT22;6091;51.432;6.880;2023-08-31T14:46:13;28.10;39.20
12060;DHT22;6091;51.432;6.880;2023-08-31T14:48:41;28.10;39.30
12060;DHT22;6091;51.432;6.880;2023-08-31T14:51:08;28.00;39.40
12060;DHT22;6091;51.432;6.880;2023-08-31T14:53:35;28.00;39.50
12060;DHT22;6091;51.432;6.880;2023-08-31T14:56:03;28.00;39.60
12060;DHT22;6091;51.432;6.880;2023-08-31T14:58:31;27.90;39.50
12060;DHT22;6091;51.432;6.880;2023-08-31T15:00:58;28.00;39.70
12060;DHT22;6091;51.432;6.880;2023-08-31T15:03:25;27.90;39.60
12060;DHT22;6091;51.432;6.880;2023-08-31T15:05:53;27.90;39.60
12060;DHT22;6091;51.432;6.880;2023-08-31T15:08:22;27.90;39.70
12060;DHT22;6091;51.432;6.880;2023-08-31T15:11:02;27.90;39.70
12060;DHT22;6091;51.432;6.880;2023-08-31T15:13:29;27.90;39.80
12060;DHT22;6091;51.432;6.880;2023-08-31T15:15:57;27.80;39.70
12060;DHT22;6091;51.432;6.880;2023-08-31T15:18:28;27.80;39.80
12060;DHT22;6091;51.432;6.880;2023-08-31T15:20:55;27.80;39.80
12060;DHT22;6091;51.432;6.880;2023-08-31T15:23:23;27.80;39.80
12060;DHT22;6091;51.432;6.880;2023-08-31T15:25:50;27.70;39.80
12060;DHT22;6091;51.432;6.880;2023-08-31T15:28:17;27.70;39.80
12060;DHT22;6091;51.432;6.880;2023-08-31T15:30:47;27.70;39.90
12060;DHT22;6091;51.432;6.880;2023-08-31T15:33:14;27.70;40.00
12060;DHT22;6091;51.432;6.880;2023-08-31T15:35:41;27.70;40.00
12060;DHT22;6091;51.432;6.880;2023-08-31T15:38:08;27.60;40.00
12060;DHT22;6091;51.432;6.880;2023-08-31T15:40:36;27.60;40.00
12060;DHT22;6091;51.432;6.880;2023-08-31T15:43:03;27.60;40.10
12060;DHT22;6091;51.432;6.880;2023-08-31T15:45:31;27.50;40.00
12060;DHT22;6091;51.432;6.880;2023-08-31T15:47:58;27.50;40.10
12060;DHT22;6091;51.432;6.880;2023-08-31T15:50:25;27.50;40.10
12060;DHT22;6091;51.432;6.880;2023-08-31T15:52:52;27.50;40.20
12060;DHT22;6091;51.432;6.880;2023-08-31T15:55:20;27.50;40.20
12060;DHT22;6091;51.432;6.880;2023-08-31T15:57:47;27.50;40.20
12060;DHT22;6091;51.432;6.880;2023-08-31T16:00:14;27.50;40.20
12060;DHT22;6091;51.432;6.880;2023-08-31T16:02:42;27.50;40.30
12060;DHT22;6091;51.432;6.880;2023-08-31T16:05:10;27.50;40.30
12060;DHT22;6091;51.432;6.880;2023-08-31T16:07:37;27.40;40.20
12060;DHT22;6091;51.432;6.880;2023-08-31T16:10:07;27.40;40.30
12060;DHT22;6091;51.432;6.880;2023-08-31T16:12:35;27.40;40.30
12060;DHT22;6091;51.432;6.880;2023-08-31T16:15:03;27.40;40.30